Wolfsberg, Austria
Current Conditions -  °F | °C
As of 2:50 PM on Friday 31 Oct 2014 (Local Time) from LOXZ Reporting Station
Scattered Clouds Scattered Clouds  
Wind Chill: 55°   Ceiling: Unl
Heat Index: 55°   Visibility: 31mi
Dew Point: 43°   Wind: 2mph
Humidity: 63%   Direction: NA
Pressure: 30.3"   Gusts: NA
Location:  46.85°N, 14.85°E
Report Text: LOXZ 311250Z VRB02KT 50KM SCT060SC 13/06 Q1026 RMK SCT
Loading
Personal Weather Stations






























Interactive Weather Map
Tropical Storm Tracking
New forecast layout! Learn more

10-Day Weather Forecast

Advertisements
Track Severe Weather on mobile